Bookmark and Share
Track history (hours):
 

Shirahamamaru

Last reported at 2014-Apr-16 10:33 UTC. Time now 2014-Apr-16 16:04 UTC.
Position N 35°12' E 139°45'.

Length 79 m; draft 3.2 m.

Type: Passenger vessel. MMSI: 431000239.

NotesDate/timePositionNaut miles runAvg speedWind from/ knotsBaromVisibWave heightAir tempDewpointWater temp
2014-Apr-16 10:33N 35°12' E 139°45'2 2.4
2014-Apr-16 09:33N 35°11' E 139°48'4 4.3
2014-Apr-16 08:34N 35°13' E 139°43'5 5.2
2014-Apr-16 07:33N 35°10' E 139°49'5 5.2
2014-Apr-16 06:33N 35°13' E 139°43'3 3.4
2014-Apr-16 05:33N 35°12' E 139°47'2 2.4
2014-Apr-16 04:33N 35°13' E 139°44'3 3.5
2014-Apr-16 03:33N 35°11' E 139°48'4 4.5
2014-Apr-16 02:33N 35°13' E 139°43'4 4.5
2014-Apr-16 01:33N 35°11' E 139°48'4 4.2
2014-Apr-16 00:33N 35°13' E 139°44'2 2.3
2014-Apr-15 23:33N 35°12' E 139°46'1 1.2
2014-Apr-15 22:34N 35°13' E 139°45'2 2.1
2014-Apr-15 21:33N 35°12' E 139°47'2 2.1
2014-Apr-15 20:33N 35°10' E 139°49'3 0.3
2014-Apr-15 10:34N 35°12' E 139°46'3 3.1
2014-Apr-15 09:34N 35°10' E 139°49'3 3.1
2014-Apr-15 08:34N 35°13' E 139°46'1 1.4
2014-Apr-15 07:34N 35°11' E 139°47'2 2.4
2014-Apr-15 06:34N 35°13' E 139°45'2 2.4
2014-Apr-15 05:34N 35°11' E 139°47'1 0.6
2014-Apr-15 03:34N 35°12' E 139°46'0 0.3
2014-Apr-15 02:34N 35°12' E 139°46'1 1.5
2014-Apr-15 01:34N 35°11' E 139°47'2 2.4
2014-Apr-15 00:34N 35°13' E 139°45'2 2.3
2014-Apr-14 23:34N 35°11' E 139°47'2 2.5
2014-Apr-14 22:34N 35°13' E 139°45'2 1.6
2014-Apr-14 21:34N 35°12' E 139°46'1 1.4
2014-Apr-14 20:34N 35°13' E 139°45'4 0.4
2014-Apr-14 09:33N 35°10' E 139°49'3 2.8
2014-Apr-14 08:33N 35°12' E 139°46'1 0.9
2014-Apr-14 07:33N 35°12' E 139°47'2 1.9
2014-Apr-14 06:33N 35°13' E 139°45'2 2.0
2014-Apr-14 05:33N 35°12' E 139°47'1 0.1
2014-Apr-13 22:33N 35°12' E 139°46'1 1.4
2014-Apr-13 21:33N 35°13' E 139°45'2 0.2
2014-Apr-13 11:08N 35°13' E 139°43'6 9.7
2014-Apr-13 10:33N 35°10' E 139°49'3 3.0
2014-Apr-13 09:33N 35°12' E 139°46'2 2.2
2014-Apr-13 08:33N 35°11' E 139°48'3 3.3
2014-Apr-13 07:33N 35°13' E 139°45'3 2.5
2014-Apr-13 06:33N 35°11' E 139°47'2 2.4
2014-Apr-13 05:33N 35°13' E 139°45'1 1.1
2014-Apr-13 04:33N 35°12' E 139°46'0 0.3
2014-Apr-13 03:33N 35°12' E 139°46'2 1.5
2014-Apr-13 02:33N 35°11' E 139°47'3 2.7
2014-Apr-13 01:33N 35°13' E 139°45'2 2.4
2014-Apr-13 00:33N 35°12' E 139°47'2 2.4
2014-Apr-12 23:33N 35°13' E 139°44'2 1.7
2014-Apr-12 22:33N 35°12' E 139°46'2 1.6
2014-Apr-12 21:33N 35°13' E 139°45'1 1.5
2014-Apr-12 20:33N 35°13' E 139°43'0 0.0
2014-Apr-12 11:09N 35°13' E 139°43'6 9.5
2014-Apr-12 10:33N 35°10' E 139°49'3 3.3
2014-Apr-12 09:33N 35°12' E 139°46'1 1.4
2014-Apr-12 08:34N 35°11' E 139°47'2 2.4
2014-Apr-12 07:33N 35°13' E 139°44'3 2.7
2014-Apr-12 06:33N 35°11' E 139°47'3 2.6
2014-Apr-12 05:33N 35°13' E 139°45'2 1.7
2014-Apr-12 04:33N 35°12' E 139°47'1 1.1
2014-Apr-12 03:32N 35°12' E 139°45'2 2.1
2014-Apr-12 02:34N 35°11' E 139°47'3 2.8
2014-Apr-12 01:33N 35°13' E 139°45'2 2.3
2014-Apr-12 00:34N 35°11' E 139°47'2 2.3
2014-Apr-11 23:33N 35°13' E 139°44'1 1.4
2014-Apr-11 22:33N 35°12' E 139°46'1 1.5
2014-Apr-11 21:33N 35°13' E 139°44'1 1.4
2014-Apr-11 20:33N 35°13' E 139°43'0 0.0
2014-Apr-11 11:08N 35°13' E 139°43'6 9.8
2014-Apr-11 10:33N 35°10' E 139°49'3 3.1
2014-Apr-11 09:33N 35°12' E 139°46'1 1.3
2014-Apr-11 08:34N 35°11' E 139°47'3 2.5
2014-Apr-11 07:32N 35°13' E 139°44'3 2.6
2014-Apr-11 06:33N 35°11' E 139°47'2 2.4
2014-Apr-11 05:33N 35°13' E 139°45'1 1.4
2014-Apr-11 04:33N 35°12' E 139°46'1 0.5
2014-Apr-11 03:33N 35°12' E 139°45'2 1.6
2014-Apr-11 02:33N 35°11' E 139°47'3 2.6
2014-Apr-11 01:32N 35°13' E 139°44'3 2.8
2014-Apr-11 00:33N 35°11' E 139°47'3 2.6
2014-Apr-10 23:32N 35°13' E 139°44'2 1.6
2014-Apr-10 22:33N 35°12' E 139°46'2 1.6
2014-Apr-10 21:33N 35°13' E 139°44'1 0.1
2014-Apr-10 11:09N 35°13' E 139°43'6 9.5
2014-Apr-10 10:33N 35°10' E 139°49'3 3.0
2014-Apr-10 09:33N 35°12' E 139°46'1 1.4
2014-Apr-10 08:33N 35°11' E 139°47'2 2.4
2014-Apr-10 07:33N 35°13' E 139°45'2 2.2
2014-Apr-10 06:33N 35°11' E 139°47'2 2.1
2014-Apr-10 05:33N 35°13' E 139°45'1 1.3
2014-Apr-10 04:33N 35°12' E 139°46'1 0.5
2014-Apr-10 03:33N 35°12' E 139°46'1 1.4
2014-Apr-10 02:33N 35°12' E 139°47'3 2.5
2014-Apr-10 01:32N 35°13' E 139°44'2 2.6
2014-Apr-10 00:33N 35°12' E 139°47'2 2.3
2014-Apr-09 23:33N 35°13' E 139°45'1 1.4
2014-Apr-09 22:33N 35°12' E 139°46'1 1.4
2014-Apr-09 21:32N 35°13' E 139°44'1 0.1
2014-Apr-09 11:15N 35°13' E 139°43'6 8.2
2014-Apr-09 10:33N 35°10' E 139°49'3 3.4
2014-Apr-09 09:33N 35°12' E 139°46'2 1.5
2014-Apr-09 08:33N 35°11' E 139°47'2 2.3
2014-Apr-09 07:33N 35°13' E 139°45'2 2.2
2014-Apr-09 06:33N 35°11' E 139°47'2 2.1
2014-Apr-09 05:33N 35°13' E 139°45'1 1.2
2014-Apr-09 04:33N 35°12' E 139°46'0 0.1
2014-Apr-09 03:33N 35°12' E 139°46'1 1.2
2014-Apr-09 02:33N 35°11' E 139°47'3 2.5
2014-Apr-09 01:33N 35°13' E 139°44'3 2.5
2014-Apr-09 00:33N 35°12' E 139°47'3 2.7
2014-Apr-08 23:33N 35°13' E 139°44'2 1.7
2014-Apr-08 22:33N 35°12' E 139°46'1 1.3
2014-Apr-08 21:33N 35°13' E 139°45'2 1.5
2014-Apr-08 20:33N 35°13' E 139°43'0 0.0
2014-Apr-08 11:14N 35°13' E 139°43'6 8.5
2014-Apr-08 10:33N 35°10' E 139°49'3 3.3
2014-Apr-08 09:33N 35°12' E 139°46'2 1.6
2014-Apr-08 08:33N 35°11' E 139°47'2 2.5
2014-Apr-08 07:33N 35°13' E 139°45'2 2.3
2014-Apr-08 06:33N 35°11' E 139°47'2 2.2
2014-Apr-08 05:33N 35°13' E 139°45'1 1.3
2014-Apr-08 04:33N 35°12' E 139°46'1 0.7
2014-Apr-08 03:33N 35°12' E 139°45'2 1.6
2014-Apr-08 02:33N 35°11' E 139°47'2 2.3
2014-Apr-08 01:33N 35°13' E 139°45'2 2.4
2014-Apr-08 00:33N 35°11' E 139°47'2 2.4
2014-Apr-07 23:33N 35°13' E 139°45'2 1.9
2014-Apr-07 22:33N 35°11' E 139°46'2 1.9
2014-Apr-07 21:33N 35°13' E 139°45'2 1.5
2014-Apr-07 20:33N 35°13' E 139°43'0 0.0
2014-Apr-07 11:08N 35°13' E 139°43'6 9.7
2014-Apr-07 10:33N 35°10' E 139°49'3 3.2
2014-Apr-07 09:33N 35°12' E 139°46'1 1.3
2014-Apr-07 08:34N 35°11' E 139°47'2 2.4
2014-Apr-07 07:33N 35°13' E 139°44'3 2.6
2014-Apr-07 06:33N 35°11' E 139°47'3 2.5
2014-Apr-07 05:33N 35°13' E 139°45'1 1.4
2014-Apr-07 04:33N 35°12' E 139°46'1 0.7
2014-Apr-07 03:33N 35°12' E 139°45'2 1.7
2014-Apr-07 02:33N 35°11' E 139°47'2 2.3
2014-Apr-07 01:33N 35°13' E 139°45'2 2.4
2014-Apr-07 00:33N 35°12' E 139°47'2 2.2
2014-Apr-06 23:33N 35°13' E 139°45'1 1.1
2014-Apr-06 22:33N 35°12' E 139°46'1 1.2
2014-Apr-06 21:33N 35°13' E 139°45'2 0.2
2014-Apr-06 11:07N 35°13' E 139°43'6 9.9
2014-Apr-06 10:34N 35°10' E 139°49'  

Dump ship's entire track history

sailing weather and tide predictions

Shirahamamaru — JG4872 — position and weather